sensor_id;sensor_type;location;lat;lon;timestamp;temperature;humidity
15574;DHT22;7888;46.748;8.102;2023-08-30T08:35:33;19.50;54.30
15574;DHT22;7888;46.748;8.102;2023-08-30T08:37:59;19.60;54.50
15574;DHT22;7888;46.748;8.102;2023-08-30T08:40:24;19.60;55.20
15574;DHT22;7888;46.748;8.102;2023-08-30T08:42:50;19.70;55.00
15574;DHT22;7888;46.748;8.102;2023-08-30T08:45:18;19.70;54.80
15574;DHT22;7888;46.748;8.102;2023-08-30T08:47:45;19.70;54.50
15574;DHT22;7888;46.748;8.102;2023-08-30T08:50:12;19.90;54.50
15574;DHT22;7888;46.748;8.102;2023-08-30T08:52:38;19.90;54.30
15574;DHT22;7888;46.748;8.102;2023-08-30T08:55:04;19.90;54.20
15574;DHT22;7888;46.748;8.102;2023-08-30T08:57:30;20.00;54.10
15574;DHT22;7888;46.748;8.102;2023-08-30T08:59:57;20.10;54.10
15574;DHT22;7888;46.748;8.102;2023-08-30T09:02:23;20.20;53.90
15574;DHT22;7888;46.748;8.102;2023-08-30T09:04:50;20.20;53.50
15574;DHT22;7888;46.748;8.102;2023-08-30T09:07:18;20.30;53.40
15574;DHT22;7888;46.748;8.102;2023-08-30T09:09:45;20.30;53.30
15574;DHT22;7888;46.748;8.102;2023-08-30T09:12:12;20.40;53.30
15574;DHT22;7888;46.748;8.102;2023-08-30T09:14:38;20.40;53.20
15574;DHT22;7888;46.748;8.102;2023-08-30T09:17:03;20.50;53.30
15574;DHT22;7888;46.748;8.102;2023-08-30T09:19:29;20.60;53.20
15574;DHT22;7888;46.748;8.102;2023-08-30T09:21:59;20.60;53.20
15574;DHT22;7888;46.748;8.102;2023-08-30T09:24:25;20.70;53.10
15574;DHT22;7888;46.748;8.102;2023-08-30T09:26:53;20.80;53.20
15574;DHT22;7888;46.748;8.102;2023-08-30T09:29:20;20.80;52.80
15574;DHT22;7888;46.748;8.102;2023-08-30T09:31:51;21.00;52.70
15574;DHT22;7888;46.748;8.102;2023-08-30T09:34:23;21.10;52.20
15574;DHT22;7888;46.748;8.102;2023-08-30T09:36:51;21.20;52.00
15574;DHT22;7888;46.748;8.102;2023-08-30T09:39:17;21.30;51.80
15574;DHT22;7888;46.748;8.102;2023-08-30T09:41:45;21.40;51.70
15574;DHT22;7888;46.748;8.102;2023-08-30T09:44:16;21.50;51.30
15574;DHT22;7888;46.748;8.102;2023-08-30T09:49:22;21.70;50.80
15574;DHT22;7888;46.748;8.102;2023-08-30T09:51:50;21.90;51.10
15574;DHT22;7888;46.748;8.102;2023-08-30T09:54:24;22.00;51.30
15574;DHT22;7888;46.748;8.102;2023-08-30T09:56:50;22.00;50.70
15574;DHT22;7888;46.748;8.102;2023-08-30T09:59:18;22.20;50.90
15574;DHT22;7888;46.748;8.102;2023-08-30T10:01:47;22.20;50.60
15574;DHT22;7888;46.748;8.102;2023-08-30T10:04:15;22.20;50.00
15574;DHT22;7888;46.748;8.102;2023-08-30T10:06:41;22.20;49.80
15574;DHT22;7888;46.748;8.102;2023-08-30T10:09:08;22.20;49.50
15574;DHT22;7888;46.748;8.102;2023-08-30T10:11:38;22.10;49.20
15574;DHT22;7888;46.748;8.102;2023-08-30T10:14:05;22.00;48.70
15574;DHT22;7888;46.748;8.102;2023-08-30T10:16:45;22.00;48.80
15574;DHT22;7888;46.748;8.102;2023-08-30T10:21:44;21.90;48.70
15574;DHT22;7888;46.748;8.102;2023-08-30T10:24:14;21.90;49.00
15574;DHT22;7888;46.748;8.102;2023-08-30T10:26:46;21.90;49.00
15574;DHT22;7888;46.748;8.102;2023-08-30T10:29:13;21.90;48.90
15574;DHT22;7888;46.748;8.102;2023-08-30T10:31:42;21.90;48.90
15574;DHT22;7888;46.748;8.102;2023-08-30T10:34:17;22.00;48.80
15574;DHT22;7888;46.748;8.102;2023-08-30T10:36:44;22.00;47.90
15574;DHT22;7888;46.748;8.102;2023-08-30T10:39:14;22.10;48.70
15574;DHT22;7888;46.748;8.102;2023-08-30T10:41:58;22.10;47.90
15574;DHT22;7888;46.748;8.102;2023-08-30T10:44:24;22.10;47.30
15574;DHT22;7888;46.748;8.102;2023-08-30T10:46:54;22.10;48.60
15574;DHT22;7888;46.748;8.102;2023-08-30T10:49:21;22.10;47.60
15574;DHT22;7888;46.748;8.102;2023-08-30T10:51:56;22.10;48.00
15574;DHT22;7888;46.748;8.102;2023-08-30T10:54:36;22.10;47.30
15574;DHT22;7888;46.748;8.102;2023-08-30T10:57:12;22.10;47.10
15574;DHT22;7888;46.748;8.102;2023-08-30T10:59:38;22.10;47.60
15574;DHT22;7888;46.748;8.102;2023-08-30T11:02:05;22.20;47.90
15574;DHT22;7888;46.748;8.102;2023-08-30T11:04:31;22.20;47.90
15574;DHT22;7888;46.748;8.102;2023-08-30T11:06:57;22.20;47.60
15574;DHT22;7888;46.748;8.102;2023-08-30T11:09:24;22.20;47.20
15574;DHT22;7888;46.748;8.102;2023-08-30T11:11:51;22.20;47.30
15574;DHT22;7888;46.748;8.102;2023-08-30T11:14:18;22.30;47.20
15574;DHT22;7888;46.748;8.102;2023-08-30T11:16:44;22.30;46.80
15574;DHT22;7888;46.748;8.102;2023-08-30T11:19:11;22.30;46.90
15574;DHT22;7888;46.748;8.102;2023-08-30T11:21:39;22.40;46.80
15574;DHT22;7888;46.748;8.102;2023-08-30T11:24:07;22.40;46.70
15574;DHT22;7888;46.748;8.102;2023-08-30T11:26:34;22.40;46.60
15574;DHT22;7888;46.748;8.102;2023-08-30T11:29:09;22.40;46.60
15574;DHT22;7888;46.748;8.102;2023-08-30T11:31:35;22.40;45.70
15574;DHT22;7888;46.748;8.102;2023-08-30T11:34:02;22.40;46.20
15574;DHT22;7888;46.748;8.102;2023-08-30T11:36:29;22.40;46.20
15574;DHT22;7888;46.748;8.102;2023-08-30T11:38:56;22.30;46.30
15574;DHT22;7888;46.748;8.102;2023-08-30T11:41:24;22.30;46.40
15574;DHT22;7888;46.748;8.102;2023-08-30T11:43:51;22.30;46.40
15574;DHT22;7888;46.748;8.102;2023-08-30T11:46:18;22.30;46.40
15574;DHT22;7888;46.748;8.102;2023-08-30T11:48:47;22.30;46.40
15574;DHT22;7888;46.748;8.102;2023-08-30T11:51:14;22.20;46.40
15574;DHT22;7888;46.748;8.102;2023-08-30T11:53:40;22.20;46.30
15574;DHT22;7888;46.748;8.102;2023-08-30T11:56:07;22.20;46.20
15574;DHT22;7888;46.748;8.102;2023-08-30T11:58:34;22.10;46.40
15574;DHT22;7888;46.748;8.102;2023-08-30T12:01:01;22.10;46.20
15574;DHT22;7888;46.748;8.102;2023-08-30T12:03:28;22.10;46.10
15574;DHT22;7888;46.748;8.102;2023-08-30T12:05:55;22.10;45.90
15574;DHT22;7888;46.748;8.102;2023-08-30T12:08:30;22.10;46.10
15574;DHT22;7888;46.748;8.102;2023-08-30T12:10:57;22.10;46.00
15574;DHT22;7888;46.748;8.102;2023-08-30T12:13:31;22.20;46.30
15574;DHT22;7888;46.748;8.102;2023-08-30T12:15:59;22.20;45.60
15574;DHT22;7888;46.748;8.102;2023-08-30T12:18:28;22.20;46.00
15574;DHT22;7888;46.748;8.102;2023-08-30T12:21:03;22.20;46.20
15574;DHT22;7888;46.748;8.102;2023-08-30T12:23:31;22.20;46.10
15574;DHT22;7888;46.748;8.102;2023-08-30T12:26:06;22.20;46.20
15574;DHT22;7888;46.748;8.102;2023-08-30T12:28:36;22.20;46.00
15574;DHT22;7888;46.748;8.102;2023-08-30T12:31:05;22.10;45.80
15574;DHT22;7888;46.748;8.102;2023-08-30T12:33:34;22.10;45.70
15574;DHT22;7888;46.748;8.102;2023-08-30T12:36:01;22.00;45.60
15574;DHT22;7888;46.748;8.102;2023-08-30T12:38:27;22.00;45.70
15574;DHT22;7888;46.748;8.102;2023-08-30T12:40:56;21.90;45.90
15574;DHT22;7888;46.748;8.102;2023-08-30T12:43:22;21.90;45.70
15574;DHT22;7888;46.748;8.102;2023-08-30T12:45:49;21.90;46.10
15574;DHT22;7888;46.748;8.102;2023-08-30T12:48:17;21.90;46.20
15574;DHT22;7888;46.748;8.102;2023-08-30T12:50:45;21.90;46.50
15574;DHT22;7888;46.748;8.102;2023-08-30T12:53:13;21.90;46.40
15574;DHT22;7888;46.748;8.102;2023-08-30T12:55:40;21.90;46.30
15574;DHT22;7888;46.748;8.102;2023-08-30T12:58:07;21.90;46.50
15574;DHT22;7888;46.748;8.102;2023-08-30T13:00:33;21.90;46.40
15574;DHT22;7888;46.748;8.102;2023-08-30T13:02:59;22.00;46.50
15574;DHT22;7888;46.748;8.102;2023-08-30T13:05:26;22.00;46.40
15574;DHT22;7888;46.748;8.102;2023-08-30T13:07:52;22.00;46.30
15574;DHT22;7888;46.748;8.102;2023-08-30T13:10:17;22.00;46.10
15574;DHT22;7888;46.748;8.102;2023-08-30T13:12:44;22.00;46.00
15574;DHT22;7888;46.748;8.102;2023-08-30T13:15:10;22.00;46.00
15574;DHT22;7888;46.748;8.102;2023-08-30T13:17:35;22.00;46.00
15574;DHT22;7888;46.748;8.102;2023-08-30T13:20:02;22.00;46.10
15574;DHT22;7888;46.748;8.102;2023-08-30T13:22:28;22.00;46.30
15574;DHT22;7888;46.748;8.102;2023-08-30T13:24:54;21.90;46.20
15574;DHT22;7888;46.748;8.102;2023-08-30T13:27:20;21.90;46.20
15574;DHT22;7888;46.748;8.102;2023-08-30T13:29:46;21.90;46.10
15574;DHT22;7888;46.748;8.102;2023-08-30T13:32:12;21.90;46.20
15574;DHT22;7888;46.748;8.102;2023-08-30T13:34:38;21.90;46.20
15574;DHT22;7888;46.748;8.102;2023-08-30T13:37:04;21.90;46.20
15574;DHT22;7888;46.748;8.102;2023-08-30T13:39:30;21.90;46.20
15574;DHT22;7888;46.748;8.102;2023-08-30T13:41:56;22.00;46.10
15574;DHT22;7888;46.748;8.102;2023-08-30T13:44:22;22.00;46.20
15574;DHT22;7888;46.748;8.102;2023-08-30T13:46:49;22.00;46.30
15574;DHT22;7888;46.748;8.102;2023-08-30T13:49:16;22.00;46.30
15574;DHT22;7888;46.748;8.102;2023-08-30T13:51:44;22.00;46.30
15574;DHT22;7888;46.748;8.102;2023-08-30T13:54:10;22.10;46.30
15574;DHT22;7888;46.748;8.102;2023-08-30T13:56:36;22.10;46.20
15574;DHT22;7888;46.748;8.102;2023-08-30T13:59:03;22.10;46.00
15574;DHT22;7888;46.748;8.102;2023-08-30T14:01:31;22.10;45.80
15574;DHT22;7888;46.748;8.102;2023-08-30T14:03:57;22.20;45.60
15574;DHT22;7888;46.748;8.102;2023-08-30T14:06:23;22.20;45.70
15574;DHT22;7888;46.748;8.102;2023-08-30T14:08:49;22.20;45.60
15574;DHT22;7888;46.748;8.102;2023-08-30T14:11:15;22.20;45.70
15574;DHT22;7888;46.748;8.102;2023-08-30T14:13:41;22.20;45.80
15574;DHT22;7888;46.748;8.102;2023-08-30T14:16:07;22.20;45.80
15574;DHT22;7888;46.748;8.102;2023-08-30T14:18:35;22.20;45.70
15574;DHT22;7888;46.748;8.102;2023-08-30T14:21:01;22.20;45.80
15574;DHT22;7888;46.748;8.102;2023-08-30T14:23:29;22.30;45.80
15574;DHT22;7888;46.748;8.102;2023-08-30T14:25:59;22.30;45.60
15574;DHT22;7888;46.748;8.102;2023-08-30T14:28:26;22.30;45.00
15574;DHT22;7888;46.748;8.102;2023-08-30T14:30:53;22.30;45.40
15574;DHT22;7888;46.748;8.102;2023-08-30T14:33:19;22.30;45.60
15574;DHT22;7888;46.748;8.102;2023-08-30T14:35:46;22.30;45.40
15574;DHT22;7888;46.748;8.102;2023-08-30T14:38:12;22.30;45.50
15574;DHT22;7888;46.748;8.102;2023-08-30T14:40:37;22.30;45.50
15574;DHT22;7888;46.748;8.102;2023-08-30T14:43:04;22.20;45.40
15574;DHT22;7888;46.748;8.102;2023-08-30T14:45:31;22.30;45.50
15574;DHT22;7888;46.748;8.102;2023-08-30T14:47:57;22.20;45.30
15574;DHT22;7888;46.748;8.102;2023-08-30T14:50:23;22.30;45.50
15574;DHT22;7888;46.748;8.102;2023-08-30T14:52:49;22.30;45.50
15574;DHT22;7888;46.748;8.102;2023-08-30T14:55:16;22.30;45.40
15574;DHT22;7888;46.748;8.102;2023-08-30T14:57:41;22.30;45.40
15574;DHT22;7888;46.748;8.102;2023-08-30T15:00:07;22.30;45.00
15574;DHT22;7888;46.748;8.102;2023-08-30T15:02:34;22.30;44.90
15574;DHT22;7888;46.748;8.102;2023-08-30T15:05:00;22.40;44.80
15574;DHT22;7888;46.748;8.102;2023-08-30T15:07:26;22.40;44.90
15574;DHT22;7888;46.748;8.102;2023-08-30T15:09:51;22.40;44.80
15574;DHT22;7888;46.748;8.102;2023-08-30T15:12:17;22.40;44.40
15574;DHT22;7888;46.748;8.102;2023-08-30T15:14:43;22.40;44.30
15574;DHT22;7888;46.748;8.102;2023-08-30T15:17:09;22.40;44.30
15574;DHT22;7888;46.748;8.102;2023-08-30T15:19:38;22.40;44.30
15574;DHT22;7888;46.748;8.102;2023-08-30T15:22:03;22.50;44.60
15574;DHT22;7888;46.748;8.102;2023-08-30T15:24:29;22.50;44.60
15574;DHT22;7888;46.748;8.102;2023-08-30T15:26:55;22.50;44.40
15574;DHT22;7888;46.748;8.102;2023-08-30T15:29:21;22.60;44.10
15574;DHT22;7888;46.748;8.102;2023-08-30T15:31:46;22.60;44.20
15574;DHT22;7888;46.748;8.102;2023-08-30T15:34:20;22.60;44.00
15574;DHT22;7888;46.748;8.102;2023-08-30T15:36:46;22.60;44.10
15574;DHT22;7888;46.748;8.102;2023-08-30T15:39:13;22.60;44.40
15574;DHT22;7888;46.748;8.102;2023-08-30T15:41:44;22.60;44.10
15574;DHT22;7888;46.748;8.102;2023-08-30T15:44:10;22.60;44.40
15574;DHT22;7888;46.748;8.102;2023-08-30T15:46:36;22.60;44.20
15574;DHT22;7888;46.748;8.102;2023-08-30T15:49:02;22.60;43.90
15574;DHT22;7888;46.748;8.102;2023-08-30T15:51:28;22.60;43.90
15574;DHT22;7888;46.748;8.102;2023-08-30T15:53:54;22.60;44.00
15574;DHT22;7888;46.748;8.102;2023-08-30T15:56:20;22.60;43.50
15574;DHT22;7888;46.748;8.102;2023-08-30T15:58:47;22.60;43.90
15574;DHT22;7888;46.748;8.102;2023-08-30T16:01:13;22.60;44.00
15574;DHT22;7888;46.748;8.102;2023-08-30T16:03:40;22.60;43.60
15574;DHT22;7888;46.748;8.102;2023-08-30T16:06:07;22.60;43.60
15574;DHT22;7888;46.748;8.102;2023-08-30T16:08:33;22.60;43.60
15574;DHT22;7888;46.748;8.102;2023-08-30T16:10:59;22.50;43.50
15574;DHT22;7888;46.748;8.102;2023-08-30T16:13:25;22.50;43.60
15574;DHT22;7888;46.748;8.102;2023-08-30T16:15:52;22.50;43.70
15574;DHT22;7888;46.748;8.102;2023-08-30T16:18:18;22.50;44.00
15574;DHT22;7888;46.748;8.102;2023-08-30T16:20:44;22.50;44.20
15574;DHT22;7888;46.748;8.102;2023-08-30T16:23:10;22.50;44.40
15574;DHT22;7888;46.748;8.102;2023-08-30T16:25:36;22.50;44.50
15574;DHT22;7888;46.748;8.102;2023-08-30T16:28:02;22.50;44.70
15574;DHT22;7888;46.748;8.102;2023-08-30T16:30:28;22.50;44.70
15574;DHT22;7888;46.748;8.102;2023-08-30T16:32:55;22.50;44.80
15574;DHT22;7888;46.748;8.102;2023-08-30T16:35:22;22.50;44.90
15574;DHT22;7888;46.748;8.102;2023-08-30T16:37:50;22.50;45.00
15574;DHT22;7888;46.748;8.102;2023-08-30T16:40:15;22.50;45.00
15574;DHT22;7888;46.748;8.102;2023-08-30T16:42:41;22.50;45.20
15574;DHT22;7888;46.748;8.102;2023-08-30T16:45:07;22.50;45.30
15574;DHT22;7888;46.748;8.102;2023-08-30T16:47:33;22.50;45.60
15574;DHT22;7888;46.748;8.102;2023-08-30T16:49:59;22.50;45.60
15574;DHT22;7888;46.748;8.102;2023-08-30T16:52:25;22.40;45.80
15574;DHT22;7888;46.748;8.102;2023-08-30T16:54:51;22.40;45.80
15574;DHT22;7888;46.748;8.102;2023-08-30T16:57:17;22.40;46.10
15574;DHT22;7888;46.748;8.102;2023-08-30T16:59:43;22.30;46.70
15574;DHT22;7888;46.748;8.102;2023-08-30T17:02:09;22.30;47.00
15574;DHT22;7888;46.748;8.102;2023-08-30T17:04:34;22.30;47.20
15574;DHT22;7888;46.748;8.102;2023-08-30T17:07:00;22.30;47.30
15574;DHT22;7888;46.748;8.102;2023-08-30T17:09:33;22.20;47.40
15574;DHT22;7888;46.748;8.102;2023-08-30T17:12:01;22.20;47.70
15574;DHT22;7888;46.748;8.102;2023-08-30T17:14:28;22.20;47.60
15574;DHT22;7888;46.748;8.102;2023-08-30T17:16:53;22.20;47.40
15574;DHT22;7888;46.748;8.102;2023-08-30T17:19:21;22.10;47.50
15574;DHT22;7888;46.748;8.102;2023-08-30T17:21:47;22.10;47.60
15574;DHT22;7888;46.748;8.102;2023-08-30T17:24:13;22.00;47.60
15574;DHT22;7888;46.748;8.102;2023-08-30T17:26:38;22.00;47.80
15574;DHT22;7888;46.748;8.102;2023-08-30T17:29:05;22.00;47.90
15574;DHT22;7888;46.748;8.102;2023-08-30T17:31:32;21.90;47.70
15574;DHT22;7888;46.748;8.102;2023-08-30T17:33:58;21.90;47.70
15574;DHT22;7888;46.748;8.102;2023-08-30T17:36:24;21.80;47.70
15574;DHT22;7888;46.748;8.102;2023-08-30T17:38:51;21.80;47.60
15574;DHT22;7888;46.748;8.102;2023-08-30T17:41:17;21.70;47.60
15574;DHT22;7888;46.748;8.102;2023-08-30T17:43:43;21.60;47.40
15574;DHT22;7888;46.748;8.102;2023-08-30T17:46:09;21.60;47.50
15574;DHT22;7888;46.748;8.102;2023-08-30T17:48:35;21.50;47.30
15574;DHT22;7888;46.748;8.102;2023-08-30T17:51:03;21.40;47.40
15574;DHT22;7888;46.748;8.102;2023-08-30T17:53:29;21.40;47.40
15574;DHT22;7888;46.748;8.102;2023-08-30T17:55:56;21.30;47.40
15574;DHT22;7888;46.748;8.102;2023-08-30T17:58:23;21.30;47.60
15574;DHT22;7888;46.748;8.102;2023-08-30T18:00:49;21.20;47.60
15574;DHT22;7888;46.748;8.102;2023-08-30T18:03:23;21.10;47.80
15574;DHT22;7888;46.748;8.102;2023-08-30T18:05:49;21.10;47.90
15574;DHT22;7888;46.748;8.102;2023-08-30T18:08:16;21.00;47.90
15574;DHT22;7888;46.748;8.102;2023-08-30T18:10:42;21.00;48.00
15574;DHT22;7888;46.748;8.102;2023-08-30T18:13:08;20.90;48.00
15574;DHT22;7888;46.748;8.102;2023-08-30T18:15:37;20.90;48.20
15574;DHT22;7888;46.748;8.102;2023-08-30T18:18:06;20.80;48.20
15574;DHT22;7888;46.748;8.102;2023-08-30T18:20:33;20.80;48.30
15574;DHT22;7888;46.748;8.102;2023-08-30T18:22:59;20.70;48.30
15574;DHT22;7888;46.748;8.102;2023-08-30T18:25:25;20.70;48.40
15574;DHT22;7888;46.748;8.102;2023-08-30T18:27:51;20.70;48.60
15574;DHT22;7888;46.748;8.102;2023-08-30T18:30:17;20.60;48.70
15574;DHT22;7888;46.748;8.102;2023-08-30T18:32:42;20.60;48.80
15574;DHT22;7888;46.748;8.102;2023-08-30T18:35:09;20.60;48.80
15574;DHT22;7888;46.748;8.102;2023-08-30T18:37:36;20.60;48.90
15574;DHT22;7888;46.748;8.102;2023-08-30T18:40:02;20.50;48.90
15574;DHT22;7888;46.748;8.102;2023-08-30T18:42:30;20.50;49.00
15574;DHT22;7888;46.748;8.102;2023-08-30T18:44:56;20.40;48.90
15574;DHT22;7888;46.748;8.102;2023-08-30T18:47:22;20.40;48.90
15574;DHT22;7888;46.748;8.102;2023-08-30T18:49:48;20.40;49.00
15574;DHT22;7888;46.748;8.102;2023-08-30T18:52:14;20.30;49.10
15574;DHT22;7888;46.748;8.102;2023-08-30T18:54:40;20.30;49.20
15574;DHT22;7888;46.748;8.102;2023-08-30T18:57:10;20.30;49.30
15574;DHT22;7888;46.748;8.102;2023-08-30T18:59:37;20.30;49.40
15574;DHT22;7888;46.748;8.102;2023-08-30T19:02:03;20.20;49.30
15574;DHT22;7888;46.748;8.102;2023-08-30T19:04:29;20.20;49.40
15574;DHT22;7888;46.748;8.102;2023-08-30T19:06:56;20.20;49.70
15574;DHT22;7888;46.748;8.102;2023-08-30T19:09:22;20.20;49.70
15574;DHT22;7888;46.748;8.102;2023-08-30T19:11:48;20.20;49.70
15574;DHT22;7888;46.748;8.102;2023-08-30T19:14:14;20.10;49.80
15574;DHT22;7888;46.748;8.102;2023-08-30T19:16:39;20.10;49.90
15574;DHT22;7888;46.748;8.102;2023-08-30T19:19:05;20.10;49.90
15574;DHT22;7888;46.748;8.102;2023-08-30T19:21:33;20.10;50.00
15574;DHT22;7888;46.748;8.102;2023-08-30T19:23:59;20.10;50.00
15574;DHT22;7888;46.748;8.102;2023-08-30T19:26:25;20.00;50.10
15574;DHT22;7888;46.748;8.102;2023-08-30T19:28:54;20.00;50.10
15574;DHT22;7888;46.748;8.102;2023-08-30T19:31:20;20.00;50.10
15574;DHT22;7888;46.748;8.102;2023-08-30T19:33:46;20.00;50.20
15574;DHT22;7888;46.748;8.102;2023-08-30T19:36:12;20.00;50.20
15574;DHT22;7888;46.748;8.102;2023-08-30T19:38:43;19.90;50.20
15574;DHT22;7888;46.748;8.102;2023-08-30T19:41:09;19.90;50.30
15574;DHT22;7888;46.748;8.102;2023-08-30T19:43:35;19.90;50.40
15574;DHT22;7888;46.748;8.102;2023-08-30T19:46:02;19.90;50.60
15574;DHT22;7888;46.748;8.102;2023-08-30T19:48:30;19.80;50.60
15574;DHT22;7888;46.748;8.102;2023-08-30T19:50:57;19.80;50.60
15574;DHT22;7888;46.748;8.102;2023-08-30T19:53:24;19.80;50.80
15574;DHT22;7888;46.748;8.102;2023-08-30T19:55:50;19.80;50.80
15574;DHT22;7888;46.748;8.102;2023-08-30T19:58:21;19.70;50.90
15574;DHT22;7888;46.748;8.102;2023-08-30T20:00:49;19.70;50.90
15574;DHT22;7888;46.748;8.102;2023-08-30T20:03:15;19.70;51.00
15574;DHT22;7888;46.748;8.102;2023-08-30T20:05:51;19.70;51.00
15574;DHT22;7888;46.748;8.102;2023-08-30T20:08:17;19.60;51.40
15574;DHT22;7888;46.748;8.102;2023-08-30T20:10:44;19.60;51.20
15574;DHT22;7888;46.748;8.102;2023-08-30T20:13:11;19.60;51.30
15574;DHT22;7888;46.748;8.102;2023-08-30T20:15:40;19.50;51.30
15574;DHT22;7888;46.748;8.102;2023-08-30T20:18:07;19.50;51.60
15574;DHT22;7888;46.748;8.102;2023-08-30T20:20:36;19.50;51.60
15574;DHT22;7888;46.748;8.102;2023-08-30T20:23:09;19.40;51.70
15574;DHT22;7888;46.748;8.102;2023-08-30T20:25:35;19.40;51.80
15574;DHT22;7888;46.748;8.102;2023-08-30T20:28:02;19.40;51.90
15574;DHT22;7888;46.748;8.102;2023-08-30T20:30:28;19.30;52.00
15574;DHT22;7888;46.748;8.102;2023-08-30T20:32:55;19.30;52.10
15574;DHT22;7888;46.748;8.102;2023-08-30T20:35:21;19.30;52.30
15574;DHT22;7888;46.748;8.102;2023-08-30T20:37:48;19.20;52.20
15574;DHT22;7888;46.748;8.102;2023-08-30T20:40:16;19.20;52.40
15574;DHT22;7888;46.748;8.102;2023-08-30T20:42:43;19.20;52.40
15574;DHT22;7888;46.748;8.102;2023-08-30T20:45:09;19.20;52.50
15574;DHT22;7888;46.748;8.102;2023-08-30T20:47:36;19.20;52.50
15574;DHT22;7888;46.748;8.102;2023-08-30T20:50:03;19.10;52.50
15574;DHT22;7888;46.748;8.102;2023-08-30T20:52:30;19.10;52.50
15574;DHT22;7888;46.748;8.102;2023-08-30T20:54:56;19.10;52.40
15574;DHT22;7888;46.748;8.102;2023-08-30T20:57:23;19.10;52.30
15574;DHT22;7888;46.748;8.102;2023-08-30T20:59:49;19.00;52.30
15574;DHT22;7888;46.748;8.102;2023-08-30T21:02:15;19.00;52.30
15574;DHT22;7888;46.748;8.102;2023-08-30T21:04:41;19.00;52.30
15574;DHT22;7888;46.748;8.102;2023-08-30T21:07:07;19.00;52.30
15574;DHT22;7888;46.748;8.102;2023-08-30T21:09:32;19.00;52.40
15574;DHT22;7888;46.748;8.102;2023-08-30T21:11:58;18.90;52.30
15574;DHT22;7888;46.748;8.102;2023-08-30T21:14:24;18.90;52.40
15574;DHT22;7888;46.748;8.102;2023-08-30T21:16:49;18.90;52.40
15574;DHT22;7888;46.748;8.102;2023-08-30T21:19:15;18.90;52.40
15574;DHT22;7888;46.748;8.102;2023-08-30T21:21:41;18.80;52.50
15574;DHT22;7888;46.748;8.102;2023-08-30T21:24:08;18.80;52.60
15574;DHT22;7888;46.748;8.102;2023-08-30T21:26:34;18.80;52.70
15574;DHT22;7888;46.748;8.102;2023-08-30T21:29:00;18.70;52.60
15574;DHT22;7888;46.748;8.102;2023-08-30T21:31:27;18.70;52.70
15574;DHT22;7888;46.748;8.102;2023-08-30T21:33:53;18.70;52.70
15574;DHT22;7888;46.748;8.102;2023-08-30T21:36:20;18.70;52.70
15574;DHT22;7888;46.748;8.102;2023-08-30T21:38:46;18.60;52.70
15574;DHT22;7888;46.748;8.102;2023-08-30T21:41:12;18.60;52.70
15574;DHT22;7888;46.748;8.102;2023-08-30T21:43:38;18.60;52.80
15574;DHT22;7888;46.748;8.102;2023-08-30T21:46:04;18.60;52.90
15574;DHT22;7888;46.748;8.102;2023-08-30T21:48:30;18.60;53.00
15574;DHT22;7888;46.748;8.102;2023-08-30T21:50:55;18.60;53.00
15574;DHT22;7888;46.748;8.102;2023-08-30T21:53:22;18.60;53.20
15574;DHT22;7888;46.748;8.102;2023-08-30T21:55:47;18.60;53.20
15574;DHT22;7888;46.748;8.102;2023-08-30T21:58:13;18.60;53.20
15574;DHT22;7888;46.748;8.102;2023-08-30T22:00:39;18.60;53.20
15574;DHT22;7888;46.748;8.102;2023-08-30T22:03:05;18.60;53.40
15574;DHT22;7888;46.748;8.102;2023-08-30T22:05:32;18.60;53.50
15574;DHT22;7888;46.748;8.102;2023-08-30T22:07:59;18.60;53.60
15574;DHT22;7888;46.748;8.102;2023-08-30T22:10:25;18.60;53.60
15574;DHT22;7888;46.748;8.102;2023-08-30T22:12:51;18.60;53.50
15574;DHT22;7888;46.748;8.102;2023-08-30T22:15:18;18.60;53.60
15574;DHT22;7888;46.748;8.102;2023-08-30T22:17:45;18.60;53.70
15574;DHT22;7888;46.748;8.102;2023-08-30T22:20:15;18.60;53.60
15574;DHT22;7888;46.748;8.102;2023-08-30T22:22:46;18.60;53.60
15574;DHT22;7888;46.748;8.102;2023-08-30T22:25:13;18.50;53.70
15574;DHT22;7888;46.748;8.102;2023-08-30T22:27:43;18.50;53.70
15574;DHT22;7888;46.748;8.102;2023-08-30T22:30:11;18.50;53.70
15574;DHT22;7888;46.748;8.102;2023-08-30T22:32:38;18.50;53.70
15574;DHT22;7888;46.748;8.102;2023-08-30T22:35:10;18.50;53.50
15574;DHT22;7888;46.748;8.102;2023-08-30T22:37:37;18.50;53.50
15574;DHT22;7888;46.748;8.102;2023-08-30T22:40:03;18.50;53.50
15574;DHT22;7888;46.748;8.102;2023-08-30T22:42:38;18.40;53.40
15574;DHT22;7888;46.748;8.102;2023-08-30T22:45:05;18.40;53.40
15574;DHT22;7888;46.748;8.102;2023-08-30T22:47:32;18.40;53.40
15574;DHT22;7888;46.748;8.102;2023-08-30T22:49:58;18.30;53.20
15574;DHT22;7888;46.748;8.102;2023-08-30T22:52:24;18.30;53.30
15574;DHT22;7888;46.748;8.102;2023-08-30T22:54:50;18.30;53.20
15574;DHT22;7888;46.748;8.102;2023-08-30T22:57:16;18.20;53.30
15574;DHT22;7888;46.748;8.102;2023-08-30T22:59:42;18.20;53.40
15574;DHT22;7888;46.748;8.102;2023-08-30T23:02:07;18.10;53.40
15574;DHT22;7888;46.748;8.102;2023-08-30T23:04:33;18.10;53.40
15574;DHT22;7888;46.748;8.102;2023-08-30T23:07:03;18.10;54.20
15574;DHT22;7888;46.748;8.102;2023-08-30T23:09:29;18.10;53.60
15574;DHT22;7888;46.748;8.102;2023-08-30T23:11:55;18.00;53.60
15574;DHT22;7888;46.748;8.102;2023-08-30T23:14:21;18.00;53.70
15574;DHT22;7888;46.748;8.102;2023-08-30T23:16:48;17.90;53.70
15574;DHT22;7888;46.748;8.102;2023-08-30T23:19:14;17.90;53.80
15574;DHT22;7888;46.748;8.102;2023-08-30T23:21:39;17.90;53.80
15574;DHT22;7888;46.748;8.102;2023-08-30T23:24:05;17.90;53.90
15574;DHT22;7888;46.748;8.102;2023-08-30T23:26:31;17.90;54.00
15574;DHT22;7888;46.748;8.102;2023-08-30T23:28:57;17.90;54.10
15574;DHT22;7888;46.748;8.102;2023-08-30T23:31:23;17.80;54.10
15574;DHT22;7888;46.748;8.102;2023-08-30T23:33:49;17.90;54.20
15574;DHT22;7888;46.748;8.102;2023-08-30T23:36:15;17.80;54.30
15574;DHT22;7888;46.748;8.102;2023-08-30T23:38:41;17.80;54.40
15574;DHT22;7888;46.748;8.102;2023-08-30T23:41:07;17.80;54.30
15574;DHT22;7888;46.748;8.102;2023-08-30T23:43:32;17.80;54.50
15574;DHT22;7888;46.748;8.102;2023-08-30T23:45:59;17.80;54.50
15574;DHT22;7888;46.748;8.102;2023-08-30T23:48:25;17.80;54.50
15574;DHT22;7888;46.748;8.102;2023-08-30T23:50:52;17.80;54.50
15574;DHT22;7888;46.748;8.102;2023-08-30T23:53:19;17.80;54.60
15574;DHT22;7888;46.748;8.102;2023-08-30T23:55:51;17.80;54.60
15574;DHT22;7888;46.748;8.102;2023-08-30T23:58:18;17.80;54.90
